sensor_id;sensor_type;location;lat;lon;timestamp;pressure;altitude;pressure_sealevel;temperature;humidity
10706;BME280;5404;42.656;23.336;2023-04-02T00:08:02;93939.34;;;9.02;100.00
10706;BME280;5404;42.656;23.336;2023-04-02T00:13:00;93945.91;;;9.05;100.00
10706;BME280;5404;42.656;23.336;2023-04-02T00:15:26;93947.31;;;9.02;100.00
10706;BME280;5404;42.656;23.336;2023-04-02T00:17:52;93944.94;;;9.01;100.00
10706;BME280;5404;42.656;23.336;2023-04-02T00:20:17;93867.63;;;8.50;100.00
10706;BME280;5404;42.656;23.336;2023-04-02T00:22:44;93935.72;;;8.98;100.00
10706;BME280;5404;42.656;23.336;2023-04-02T00:25:11;93930.09;;;9.00;100.00
10706;BME280;5404;42.656;23.336;2023-04-02T00:27:37;93837.66;;;8.49;100.00
10706;BME280;5404;42.656;23.336;2023-04-02T00:30:03;93916.31;;;8.98;100.00
10706;BME280;5404;42.656;23.336;2023-04-02T00:32:32;93909.78;;;9.04;100.00
10706;BME280;5404;42.656;23.336;2023-04-02T00:34:58;93918.56;;;9.04;100.00
10706;BME280;5404;42.656;23.336;2023-04-02T00:37:24;93912.31;;;9.09;100.00
10706;BME280;5404;42.656;23.336;2023-04-02T00:39:54;93923.44;;;9.11;100.00
10706;BME280;5404;42.656;23.336;2023-04-02T00:42:23;93926.56;;;9.13;100.00
10706;BME280;5404;42.656;23.336;2023-04-02T00:44:50;93914.84;;;9.14;100.00
10706;BME280;5404;42.656;23.336;2023-04-02T00:47:25;93915.63;;;9.14;100.00
10706;BME280;5404;42.656;23.336;2023-04-02T00:49:56;93919.53;;;9.17;100.00
10706;BME280;5404;42.656;23.336;2023-04-02T00:52:23;93932.34;;;9.15;100.00
10706;BME280;5404;42.656;23.336;2023-04-02T00:54:51;93915.31;;;9.16;100.00
10706;BME280;5404;42.656;23.336;2023-04-02T00:57:21;93917.97;;;9.16;100.00
10706;BME280;5404;42.656;23.336;2023-04-02T00:59:52;93906.56;;;9.15;100.00
10706;BME280;5404;42.656;23.336;2023-04-02T01:04:56;93910.34;;;9.23;100.00
10706;BME280;5404;42.656;23.336;2023-04-02T01:13:21;93906.72;;;9.19;100.00
10706;BME280;5404;42.656;23.336;2023-04-02T01:18:36;93927.38;;;9.22;100.00
10706;BME280;5404;42.656;23.336;2023-04-02T01:21:07;93916.75;;;9.22;100.00
10706;BME280;5404;42.656;23.336;2023-04-02T01:28:47;93932.53;;;9.27;100.00
10706;BME280;5404;42.656;23.336;2023-04-02T01:31:16;93928.50;;;9.29;100.00
10706;BME280;5404;42.656;23.336;2023-04-02T01:33:41;93935.84;;;9.32;100.00
10706;BME280;5404;42.656;23.336;2023-04-02T01:38:56;93922.41;;;9.29;100.00
10706;BME280;5404;42.656;23.336;2023-04-02T01:41:35;93934.16;;;9.36;100.00
10706;BME280;5404;42.656;23.336;2023-04-02T01:44:06;93938.81;;;9.31;100.00
10706;BME280;5404;42.656;23.336;2023-04-02T01:46:33;93942.66;;;9.08;100.00
10706;BME280;5404;42.656;23.336;2023-04-02T01:49:02;93940.44;;;8.79;100.00
10706;BME280;5404;42.656;23.336;2023-04-02T01:51:30;93952.75;;;8.53;100.00
10706;BME280;5404;42.656;23.336;2023-04-02T01:53:57;93952.25;;;8.29;100.00
10706;BME280;5404;42.656;23.336;2023-04-02T01:56:23;93946.13;;;8.06;100.00
10706;BME280;5404;42.656;23.336;2023-04-02T01:58:51;93956.41;;;7.86;100.00
10706;BME280;5404;42.656;23.336;2023-04-02T02:01:20;93955.22;;;7.78;100.00
10706;BME280;5404;42.656;23.336;2023-04-02T02:03:47;93966.03;;;7.68;100.00
10706;BME280;5404;42.656;23.336;2023-04-02T02:06:14;93957.41;;;7.63;100.00
10706;BME280;5404;42.656;23.336;2023-04-02T02:08:50;93958.56;;;7.57;100.00
10706;BME280;5404;42.656;23.336;2023-04-02T02:11:18;93965.06;;;7.51;100.00
10706;BME280;5404;42.656;23.336;2023-04-02T02:13:46;93962.41;;;7.51;100.00
10706;BME280;5404;42.656;23.336;2023-04-02T02:16:14;93968.81;;;7.50;100.00
10706;BME280;5404;42.656;23.336;2023-04-02T02:18:41;93959.78;;;7.51;100.00
10706;BME280;5404;42.656;23.336;2023-04-02T02:21:07;93963.41;;;7.55;100.00
10706;BME280;5404;42.656;23.336;2023-04-02T02:23:34;93964.38;;;7.59;100.00
10706;BME280;5404;42.656;23.336;2023-04-02T02:25:59;93968.00;;;7.63;100.00
10706;BME280;5404;42.656;23.336;2023-04-02T02:28:32;93961.34;;;7.65;100.00
10706;BME280;5404;42.656;23.336;2023-04-02T02:31:11;93969.38;;;7.74;100.00
10706;BME280;5404;42.656;23.336;2023-04-02T02:33:42;93970.16;;;7.74;100.00
10706;BME280;5404;42.656;23.336;2023-04-02T02:41:17;93962.59;;;7.81;100.00
10706;BME280;5404;42.656;23.336;2023-04-02T02:43:47;93948.06;;;7.79;100.00
10706;BME280;5404;42.656;23.336;2023-04-02T02:46:15;93959.63;;;7.83;100.00
10706;BME280;5404;42.656;23.336;2023-04-02T02:48:42;93946.56;;;7.86;100.00
10706;BME280;5404;42.656;23.336;2023-04-02T02:51:10;93949.41;;;7.90;100.00
10706;BME280;5404;42.656;23.336;2023-04-02T02:53:45;93969.81;;;7.89;100.00
10706;BME280;5404;42.656;23.336;2023-04-02T02:56:12;93962.38;;;7.78;100.00
10706;BME280;5404;42.656;23.336;2023-04-02T02:58:38;93966.03;;;7.68;100.00
10706;BME280;5404;42.656;23.336;2023-04-02T03:01:03;93965.66;;;7.61;100.00
10706;BME280;5404;42.656;23.336;2023-04-02T03:03:29;93963.50;;;7.50;100.00
10706;BME280;5404;42.656;23.336;2023-04-02T03:06:03;93961.53;;;7.42;100.00
10706;BME280;5404;42.656;23.336;2023-04-02T03:08:34;93968.72;;;7.41;100.00
10706;BME280;5404;42.656;23.336;2023-04-02T03:11:05;93968.22;;;7.39;100.00
10706;BME280;5404;42.656;23.336;2023-04-02T03:13:33;93984.13;;;7.26;100.00
10706;BME280;5404;42.656;23.336;2023-04-02T03:23:44;94000.53;;;6.95;100.00
10706;BME280;5404;42.656;23.336;2023-04-02T03:26:14;93995.31;;;6.90;100.00
10706;BME280;5404;42.656;23.336;2023-04-02T03:28:47;93998.84;;;6.86;100.00
10706;BME280;5404;42.656;23.336;2023-04-02T03:31:17;94001.59;;;6.81;100.00
10706;BME280;5404;42.656;23.336;2023-04-02T03:33:50;94008.03;;;6.75;100.00
10706;BME280;5404;42.656;23.336;2023-04-02T03:36:19;94014.19;;;6.70;100.00
10706;BME280;5404;42.656;23.336;2023-04-02T03:38:50;94004.97;;;6.68;100.00
10706;BME280;5404;42.656;23.336;2023-04-02T03:41:29;94015.63;;;6.63;100.00
10706;BME280;5404;42.656;23.336;2023-04-02T03:43:58;94019.16;;;6.58;100.00
10706;BME280;5404;42.656;23.336;2023-04-02T03:46:36;94017.94;;;6.51;100.00
10706;BME280;5404;42.656;23.336;2023-04-02T03:49:05;94018.72;;;6.51;100.00
10706;BME280;5404;42.656;23.336;2023-04-02T03:51:33;94018.50;;;6.48;100.00
10706;BME280;5404;42.656;23.336;2023-04-02T03:54:01;94013.50;;;6.46;100.00
10706;BME280;5404;42.656;23.336;2023-04-02T03:56:27;94017.50;;;6.44;100.00
10706;BME280;5404;42.656;23.336;2023-04-02T04:01:40;94017.66;;;6.34;100.00
10706;BME280;5404;42.656;23.336;2023-04-02T04:04:15;94019.22;;;6.35;100.00
10706;BME280;5404;42.656;23.336;2023-04-02T04:06:43;94022.88;;;6.39;100.00
10706;BME280;5404;42.656;23.336;2023-04-02T04:09:10;94030.59;;;6.35;100.00
10706;BME280;5404;42.656;23.336;2023-04-02T04:11:43;94031.75;;;6.29;100.00
10706;BME280;5404;42.656;23.336;2023-04-02T04:16:40;94033.31;;;6.30;100.00
10706;BME280;5404;42.656;23.336;2023-04-02T04:19:13;94025.97;;;6.27;100.00
10706;BME280;5404;42.656;23.336;2023-04-02T04:21:42;94036.81;;;6.26;100.00
10706;BME280;5404;42.656;23.336;2023-04-02T04:24:27;94044.75;;;6.26;100.00
10706;BME280;5404;42.656;23.336;2023-04-02T04:26:56;94045.66;;;6.16;100.00
10706;BME280;5404;42.656;23.336;2023-04-02T04:32:16;94054.19;;;6.13;100.00
10706;BME280;5404;42.656;23.336;2023-04-02T04:34:53;94061.03;;;6.14;100.00
10706;BME280;5404;42.656;23.336;2023-04-02T04:37:25;94065.25;;;6.15;100.00
10706;BME280;5404;42.656;23.336;2023-04-02T04:42:26;94070.84;;;6.14;100.00
10706;BME280;5404;42.656;23.336;2023-04-02T04:47:50;94077.84;;;6.23;100.00
10706;BME280;5404;42.656;23.336;2023-04-02T04:50:22;94071.44;;;6.29;100.00
10706;BME280;5404;42.656;23.336;2023-04-02T04:52:49;94066.91;;;6.30;100.00
10706;BME280;5404;42.656;23.336;2023-04-02T04:55:36;94079.16;;;6.26;100.00
10706;BME280;5404;42.656;23.336;2023-04-02T04:58:44;94082.09;;;6.24;100.00
10706;BME280;5404;42.656;23.336;2023-04-02T05:01:02;94079.28;;;6.34;100.00
10706;BME280;5404;42.656;23.336;2023-04-02T05:03:39;94075.50;;;6.40;100.00
10706;BME280;5404;42.656;23.336;2023-04-02T05:08:53;94073.22;;;6.52;100.00
10706;BME280;5404;42.656;23.336;2023-04-02T05:11:30;94074.72;;;6.58;100.00
10706;BME280;5404;42.656;23.336;2023-04-02T05:14:07;94075.63;;;6.67;100.00
10706;BME280;5404;42.656;23.336;2023-04-02T05:16:40;94076.47;;;6.81;100.00
10706;BME280;5404;42.656;23.336;2023-04-02T05:21:47;94076.44;;;7.00;100.00
10706;BME280;5404;42.656;23.336;2023-04-02T05:26:42;94064.94;;;7.23;100.00
10706;BME280;5404;42.656;23.336;2023-04-02T05:29:12;94072.22;;;7.31;100.00
10706;BME280;5404;42.656;23.336;2023-04-02T05:34:08;94078.44;;;7.54;100.00
10706;BME280;5404;42.656;23.336;2023-04-02T05:36:35;94079.84;;;7.65;100.00
10706;BME280;5404;42.656;23.336;2023-04-02T05:39:01;94075.91;;;7.76;100.00
10706;BME280;5404;42.656;23.336;2023-04-02T05:46:25;94068.16;;;8.06;100.00
10706;BME280;5404;42.656;23.336;2023-04-02T05:48:55;94060.28;;;8.15;100.00
10706;BME280;5404;42.656;23.336;2023-04-02T05:51:23;94059.09;;;8.21;100.00
10706;BME280;5404;42.656;23.336;2023-04-02T05:53:52;94062.84;;;8.34;100.00
10706;BME280;5404;42.656;23.336;2023-04-02T05:56:21;94057.50;;;8.47;100.00
10706;BME280;5404;42.656;23.336;2023-04-02T05:58:55;94056.19;;;8.58;100.00
10706;BME280;5404;42.656;23.336;2023-04-02T06:03:59;94065.56;;;8.78;100.00
10706;BME280;5404;42.656;23.336;2023-04-02T06:09:15;94063.41;;;9.02;100.00
10706;BME280;5404;42.656;23.336;2023-04-02T06:11:43;94063.47;;;9.10;100.00
10706;BME280;5404;42.656;23.336;2023-04-02T06:14:13;94061.78;;;9.14;100.00
10706;BME280;5404;42.656;23.336;2023-04-02T06:16:39;94066.84;;;9.24;100.00
10706;BME280;5404;42.656;23.336;2023-04-02T06:19:18;94054.28;;;9.38;100.00
10706;BME280;5404;42.656;23.336;2023-04-02T06:21:45;94053.69;;;9.50;100.00
10706;BME280;5404;42.656;23.336;2023-04-02T06:24:12;94059.38;;;9.57;100.00
10706;BME280;5404;42.656;23.336;2023-04-02T06:26:40;94060.97;;;9.67;100.00
10706;BME280;5404;42.656;23.336;2023-04-02T06:29:10;94056.31;;;9.72;100.00
10706;BME280;5404;42.656;23.336;2023-04-02T06:31:40;94056.41;;;9.59;100.00
10706;BME280;5404;42.656;23.336;2023-04-02T06:34:12;94051.38;;;9.57;100.00
10706;BME280;5404;42.656;23.336;2023-04-02T06:36:39;94055.38;;;9.68;100.00
10706;BME280;5404;42.656;23.336;2023-04-02T06:39:09;94052.84;;;9.72;100.00
10706;BME280;5404;42.656;23.336;2023-04-02T06:41:39;94048.81;;;9.74;100.00
10706;BME280;5404;42.656;23.336;2023-04-02T06:44:06;94051.31;;;9.79;100.00
10706;BME280;5404;42.656;23.336;2023-04-02T06:46:49;94050.88;;;9.86;100.00
10706;BME280;5404;42.656;23.336;2023-04-02T06:49:22;94049.19;;;9.90;100.00
10706;BME280;5404;42.656;23.336;2023-04-02T06:51:50;94053.41;;;9.91;100.00
10706;BME280;5404;42.656;23.336;2023-04-02T06:54:17;94055.59;;;9.89;100.00
10706;BME280;5404;42.656;23.336;2023-04-02T06:56:50;94044.03;;;9.93;100.00
10706;BME280;5404;42.656;23.336;2023-04-02T06:59:16;94053.16;;;10.01;100.00
10706;BME280;5404;42.656;23.336;2023-04-02T07:01:44;94053.19;;;10.09;100.00
10706;BME280;5404;42.656;23.336;2023-04-02T07:04:10;94065.91;;;10.21;100.00
10706;BME280;5404;42.656;23.336;2023-04-02T07:06:36;94056.84;;;10.39;100.00
10706;BME280;5404;42.656;23.336;2023-04-02T07:09:02;94061.44;;;10.55;100.00
10706;BME280;5404;42.656;23.336;2023-04-02T07:11:28;94059.88;;;10.72;100.00
10706;BME280;5404;42.656;23.336;2023-04-02T07:13:53;94054.53;;;10.80;100.00
10706;BME280;5404;42.656;23.336;2023-04-02T07:16:23;94067.72;;;10.85;100.00
10706;BME280;5404;42.656;23.336;2023-04-02T07:18:50;94054.25;;;10.90;100.00
10706;BME280;5404;42.656;23.336;2023-04-02T07:21:15;94052.19;;;10.96;100.00
10706;BME280;5404;42.656;23.336;2023-04-02T07:23:42;94046.41;;;11.02;100.00
10706;BME280;5404;42.656;23.336;2023-04-02T07:26:07;94052.97;;;11.13;100.00
10706;BME280;5404;42.656;23.336;2023-04-02T07:28:34;94062.97;;;11.25;100.00
10706;BME280;5404;42.656;23.336;2023-04-02T07:31:01;94054.53;;;11.31;100.00
10706;BME280;5404;42.656;23.336;2023-04-02T07:33:27;94057.94;;;11.40;100.00
10706;BME280;5404;42.656;23.336;2023-04-02T07:35:53;94047.72;;;11.51;100.00
10706;BME280;5404;42.656;23.336;2023-04-02T07:38:21;94047.22;;;11.66;100.00
10706;BME280;5404;42.656;23.336;2023-04-02T07:40:46;94049.56;;;11.76;100.00
10706;BME280;5404;42.656;23.336;2023-04-02T07:43:12;94048.25;;;11.91;100.00
10706;BME280;5404;42.656;23.336;2023-04-02T07:45:37;94041.13;;;12.03;100.00
10706;BME280;5404;42.656;23.336;2023-04-02T07:48:06;94054.78;;;12.10;100.00
10706;BME280;5404;42.656;23.336;2023-04-02T07:50:31;94051.41;;;12.22;100.00
10706;BME280;5404;42.656;23.336;2023-04-02T07:52:57;94048.31;;;12.40;100.00
10706;BME280;5404;42.656;23.336;2023-04-02T07:55:22;94039.09;;;12.58;100.00
10706;BME280;5404;42.656;23.336;2023-04-02T07:57:49;94046.84;;;12.72;100.00
10706;BME280;5404;42.656;23.336;2023-04-02T08:00:15;93975.72;;;12.38;100.00
10706;BME280;5404;42.656;23.336;2023-04-02T08:02:41;94040.50;;;12.97;100.00
10706;BME280;5404;42.656;23.336;2023-04-02T08:05:07;94038.25;;;13.08;100.00
10706;BME280;5404;42.656;23.336;2023-04-02T08:07:33;94036.84;;;13.43;100.00
10706;BME280;5404;42.656;23.336;2023-04-02T08:09:58;94043.25;;;13.74;100.00
10706;BME280;5404;42.656;23.336;2023-04-02T08:12:23;94046.19;;;13.93;100.00
10706;BME280;5404;42.656;23.336;2023-04-02T08:14:49;94047.13;;;14.22;98.97
10706;BME280;5404;42.656;23.336;2023-04-02T08:17:15;94055.28;;;14.25;97.52
10706;BME280;5404;42.656;23.336;2023-04-02T08:19:40;94054.47;;;14.25;95.31
10706;BME280;5404;42.656;23.336;2023-04-02T08:22:06;94056.28;;;14.33;96.37
10706;BME280;5404;42.656;23.336;2023-04-02T08:24:32;94061.22;;;14.55;94.71
10706;BME280;5404;42.656;23.336;2023-04-02T08:26:57;94048.91;;;14.42;89.17
10706;BME280;5404;42.656;23.336;2023-04-02T08:29:22;94045.16;;;14.31;91.92
10706;BME280;5404;42.656;23.336;2023-04-02T08:31:48;94054.16;;;14.26;93.08
10706;BME280;5404;42.656;23.336;2023-04-02T08:34:13;94009.59;;;14.10;94.76
10706;BME280;5404;42.656;23.336;2023-04-02T08:36:40;94051.78;;;14.25;92.37
10706;BME280;5404;42.656;23.336;2023-04-02T08:39:07;94069.22;;;14.19;92.13
10706;BME280;5404;42.656;23.336;2023-04-02T08:41:58;94061.66;;;14.33;91.94
10706;BME280;5404;42.656;23.336;2023-04-02T08:44:24;94066.81;;;14.50;87.90
10706;BME280;5404;42.656;23.336;2023-04-02T08:47:01;94066.13;;;14.53;87.25
10706;BME280;5404;42.656;23.336;2023-04-02T08:52:14;94064.28;;;14.81;87.05
10706;BME280;5404;42.656;23.336;2023-04-02T08:54:42;94060.00;;;15.04;83.79
10706;BME280;5404;42.656;23.336;2023-04-02T08:59:39;94051.72;;;15.09;78.66
10706;BME280;5404;42.656;23.336;2023-04-02T09:02:09;94048.47;;;15.03;79.18
10706;BME280;5404;42.656;23.336;2023-04-02T09:04:39;94054.50;;;15.12;81.78
10706;BME280;5404;42.656;23.336;2023-04-02T09:07:07;94057.00;;;15.33;82.29
10706;BME280;5404;42.656;23.336;2023-04-02T09:09:35;94064.44;;;15.52;74.21
10706;BME280;5404;42.656;23.336;2023-04-02T09:12:02;94055.56;;;15.63;71.33
10706;BME280;5404;42.656;23.336;2023-04-02T09:14:45;94046.94;;;16.01;71.45
10706;BME280;5404;42.656;23.336;2023-04-02T09:17:19;94042.53;;;16.90;63.47
10706;BME280;5404;42.656;23.336;2023-04-02T09:19:51;94046.09;;;17.70;56.68
10706;BME280;5404;42.656;23.336;2023-04-02T09:22:21;94051.03;;;18.78;51.93
10706;BME280;5404;42.656;23.336;2023-04-02T09:24:53;94048.47;;;20.14;46.24
10706;BME280;5404;42.656;23.336;2023-04-02T09:27:22;94048.47;;;21.08;42.93
10706;BME280;5404;42.656;23.336;2023-04-02T09:29:48;94045.81;;;22.12;39.99
10706;BME280;5404;42.656;23.336;2023-04-02T09:35:09;94037.69;;;22.99;36.60
10706;BME280;5404;42.656;23.336;2023-04-02T09:37:37;94043.91;;;22.51;35.95
10706;BME280;5404;42.656;23.336;2023-04-02T09:40:25;94041.72;;;21.49;38.04
10706;BME280;5404;42.656;23.336;2023-04-02T09:43:01;94045.34;;;20.52;39.44
10706;BME280;5404;42.656;23.336;2023-04-02T09:45:27;94050.00;;;19.78;40.99
10706;BME280;5404;42.656;23.336;2023-04-02T09:47:52;94044.31;;;19.87;41.28
10706;BME280;5404;42.656;23.336;2023-04-02T09:52:46;94035.66;;;20.51;39.29
10706;BME280;5404;42.656;23.336;2023-04-02T09:57:43;94039.63;;;19.47;41.68
10706;BME280;5404;42.656;23.336;2023-04-02T10:00:10;94036.22;;;19.24;42.12
10706;BME280;5404;42.656;23.336;2023-04-02T10:02:41;94029.94;;;18.87;43.65
10706;BME280;5404;42.656;23.336;2023-04-02T10:05:14;94046.09;;;18.34;44.51
10706;BME280;5404;42.656;23.336;2023-04-02T10:07:41;94042.84;;;18.03;44.54
10706;BME280;5404;42.656;23.336;2023-04-02T10:10:25;94039.31;;;18.44;43.42
10706;BME280;5404;42.656;23.336;2023-04-02T10:15:47;94020.91;;;18.76;42.80
10706;BME280;5404;42.656;23.336;2023-04-02T10:20:42;94011.41;;;19.78;41.47
10706;BME280;5404;42.656;23.336;2023-04-02T10:23:13;94011.41;;;20.18;39.16
10706;BME280;5404;42.656;23.336;2023-04-02T10:25:40;94005.16;;;19.70;39.77
10706;BME280;5404;42.656;23.336;2023-04-02T10:33:15;94018.25;;;20.99;40.46
10706;BME280;5404;42.656;23.336;2023-04-02T10:38:24;94011.88;;;21.46;38.57
10706;BME280;5404;42.656;23.336;2023-04-02T10:46:22;94015.06;;;21.72;38.93
10706;BME280;5404;42.656;23.336;2023-04-02T10:51:38;94005.53;;;21.10;40.67
10706;BME280;5404;42.656;23.336;2023-04-02T10:56:33;94003.69;;;19.80;43.52
10706;BME280;5404;42.656;23.336;2023-04-02T10:59:04;94005.41;;;18.69;45.47
10706;BME280;5404;42.656;23.336;2023-04-02T11:01:31;94013.31;;;18.10;47.43
10706;BME280;5404;42.656;23.336;2023-04-02T11:03:59;93999.63;;;18.22;48.88
10706;BME280;5404;42.656;23.336;2023-04-02T11:06:29;94013.44;;;18.66;49.21
10706;BME280;5404;42.656;23.336;2023-04-02T11:08:57;94006.16;;;19.25;48.56
10706;BME280;5404;42.656;23.336;2023-04-02T11:11:26;94006.72;;;19.38;45.78
10706;BME280;5404;42.656;23.336;2023-04-02T11:13:57;94003.44;;;19.25;46.44
10706;BME280;5404;42.656;23.336;2023-04-02T11:16:24;93999.38;;;19.38;46.90
10706;BME280;5404;42.656;23.336;2023-04-02T11:19:07;93998.66;;;19.12;45.85
10706;BME280;5404;42.656;23.336;2023-04-02T11:24:01;94002.75;;;19.02;47.15
10706;BME280;5404;42.656;23.336;2023-04-02T11:26:27;94001.25;;;19.05;47.60
10706;BME280;5404;42.656;23.336;2023-04-02T11:29:26;93999.78;;;19.11;46.89
10706;BME280;5404;42.656;23.336;2023-04-02T11:31:45;93997.88;;;19.11;47.24
10706;BME280;5404;42.656;23.336;2023-04-02T11:34:16;93995.84;;;19.31;48.37
10706;BME280;5404;42.656;23.336;2023-04-02T11:36:59;93988.16;;;19.33;45.44
10706;BME280;5404;42.656;23.336;2023-04-02T11:44:43;93977.38;;;18.51;48.88
10706;BME280;5404;42.656;23.336;2023-04-02T11:47:15;93982.09;;;18.57;47.20
10706;BME280;5404;42.656;23.336;2023-04-02T11:52:21;93983.47;;;17.77;48.50
10706;BME280;5404;42.656;23.336;2023-04-02T11:54:54;93992.50;;;17.65;49.29
10706;BME280;5404;42.656;23.336;2023-04-02T12:05:24;93973.69;;;17.46;52.89
10706;BME280;5404;42.656;23.336;2023-04-02T12:07:58;93975.16;;;17.43;54.20
10706;BME280;5404;42.656;23.336;2023-04-02T12:11:11;93981.59;;;17.58;51.97
10706;BME280;5404;42.656;23.336;2023-04-02T12:13:45;93981.38;;;17.89;51.63
10706;BME280;5404;42.656;23.336;2023-04-02T12:16:12;93979.28;;;18.02;52.31
10706;BME280;5404;42.656;23.336;2023-04-02T12:18:56;93974.00;;;18.31;51.84
10706;BME280;5404;42.656;23.336;2023-04-02T12:21:23;93972.00;;;18.28;51.00
10706;BME280;5404;42.656;23.336;2023-04-02T12:23:50;93979.47;;;18.12;50.65
10706;BME280;5404;42.656;23.336;2023-04-02T12:26:32;93980.72;;;17.96;51.72
10706;BME280;5404;42.656;23.336;2023-04-02T12:29:20;93983.16;;;18.04;51.62
10706;BME280;5404;42.656;23.336;2023-04-02T12:31:47;93992.22;;;18.15;49.11
10706;BME280;5404;42.656;23.336;2023-04-02T12:34:16;93975.38;;;18.22;49.43
10706;BME280;5404;42.656;23.336;2023-04-02T12:39:17;93975.97;;;18.34;48.63
10706;BME280;5404;42.656;23.336;2023-04-02T12:41:42;93971.41;;;18.65;47.59
10706;BME280;5404;42.656;23.336;2023-04-02T12:44:14;93962.59;;;18.68;45.77
10706;BME280;5404;42.656;23.336;2023-04-02T12:46:43;93951.94;;;18.26;46.38
10706;BME280;5404;42.656;23.336;2023-04-02T12:51:50;93969.25;;;18.25;46.53
10706;BME280;5404;42.656;23.336;2023-04-02T12:54:16;93965.38;;;18.45;46.48
10706;BME280;5404;42.656;23.336;2023-04-02T12:56:42;93958.56;;;18.32;45.02
10706;BME280;5404;42.656;23.336;2023-04-02T12:59:28;93954.53;;;18.41;46.06
10706;BME280;5404;42.656;23.336;2023-04-02T13:01:57;93945.94;;;18.92;44.64
10706;BME280;5404;42.656;23.336;2023-04-02T13:04:23;93941.31;;;19.25;44.33
10706;BME280;5404;42.656;23.336;2023-04-02T13:06:49;93945.75;;;19.07;41.77
10706;BME280;5404;42.656;23.336;2023-04-02T13:09:32;93938.50;;;19.15;43.80
10706;BME280;5404;42.656;23.336;2023-04-02T13:11:58;93936.66;;;19.22;41.34
10706;BME280;5404;42.656;23.336;2023-04-02T13:14:24;93943.81;;;19.08;42.66
10706;BME280;5404;42.656;23.336;2023-04-02T13:16:50;93937.28;;;19.09;42.06
10706;BME280;5404;42.656;23.336;2023-04-02T13:19:31;93938.94;;;19.50;41.07
10706;BME280;5404;42.656;23.336;2023-04-02T13:22:01;93940.81;;;19.86;40.11
10706;BME280;5404;42.656;23.336;2023-04-02T13:24:27;93938.78;;;20.20;40.20
10706;BME280;5404;42.656;23.336;2023-04-02T13:26:58;93941.78;;;20.11;39.76
10706;BME280;5404;42.656;23.336;2023-04-02T13:29:26;93937.38;;;20.40;38.97
10706;BME280;5404;42.656;23.336;2023-04-02T13:31:52;93947.13;;;20.04;38.79
10706;BME280;5404;42.656;23.336;2023-04-02T13:34:18;93941.88;;;19.78;38.77
10706;BME280;5404;42.656;23.336;2023-04-02T13:36:44;93948.84;;;19.39;40.36
10706;BME280;5404;42.656;23.336;2023-04-02T13:39:09;93954.78;;;19.22;41.01
10706;BME280;5404;42.656;23.336;2023-04-02T13:41:39;93944.03;;;19.58;40.15
10706;BME280;5404;42.656;23.336;2023-04-02T13:44:05;93941.25;;;19.95;39.90
10706;BME280;5404;42.656;23.336;2023-04-02T13:46:31;93940.16;;;19.59;38.93
10706;BME280;5404;42.656;23.336;2023-04-02T13:48:58;93942.88;;;19.59;40.24
10706;BME280;5404;42.656;23.336;2023-04-02T13:51:32;93950.47;;;18.84;40.20
10706;BME280;5404;42.656;23.336;2023-04-02T13:53:59;93942.78;;;18.86;39.57
10706;BME280;5404;42.656;23.336;2023-04-02T13:56:25;93943.75;;;18.71;40.70
10706;BME280;5404;42.656;23.336;2023-04-02T13:58:51;93939.75;;;18.35;41.74
10706;BME280;5404;42.656;23.336;2023-04-02T14:01:18;93942.88;;;18.64;42.05
10706;BME280;5404;42.656;23.336;2023-04-02T14:03:44;93936.38;;;18.98;39.42
10706;BME280;5404;42.656;23.336;2023-04-02T14:16:40;93934.97;;;18.48;40.43
10706;BME280;5404;42.656;23.336;2023-04-02T14:19:12;93939.72;;;17.83;41.08
10706;BME280;5404;42.656;23.336;2023-04-02T14:29:25;93930.56;;;18.14;41.33
10706;BME280;5404;42.656;23.336;2023-04-02T14:39:25;93928.56;;;18.89;38.81
10706;BME280;5404;42.656;23.336;2023-04-02T14:44:17;93917.38;;;18.91;38.61
10706;BME280;5404;42.656;23.336;2023-04-02T14:46:46;93930.13;;;18.61;38.36
10706;BME280;5404;42.656;23.336;2023-04-02T14:52:15;93933.84;;;17.78;40.11
10706;BME280;5404;42.656;23.336;2023-04-02T14:54:45;93934.34;;;17.41;42.13
10706;BME280;5404;42.656;23.336;2023-04-02T14:57:34;93938.16;;;17.18;42.48
10706;BME280;5404;42.656;23.336;2023-04-02T15:05:21;93937.00;;;17.00;44.17
10706;BME280;5404;42.656;23.336;2023-04-02T15:07:51;93948.41;;;16.74;45.21
10706;BME280;5404;42.656;23.336;2023-04-02T15:12:46;93952.84;;;16.67;45.24
10706;BME280;5404;42.656;23.336;2023-04-02T15:15:16;93953.47;;;16.60;46.96
10706;BME280;5404;42.656;23.336;2023-04-02T15:17:43;93959.06;;;16.52;46.09
10706;BME280;5404;42.656;23.336;2023-04-02T15:20:12;93954.91;;;16.54;46.79
10706;BME280;5404;42.656;23.336;2023-04-02T15:22:59;93957.00;;;16.29;46.12
10706;BME280;5404;42.656;23.336;2023-04-02T15:28:12;93950.50;;;16.30;45.42
10706;BME280;5404;42.656;23.336;2023-04-02T15:30:43;93950.50;;;16.30;46.43
10706;BME280;5404;42.656;23.336;2023-04-02T15:38:37;93950.78;;;16.60;44.77
10706;BME280;5404;42.656;23.336;2023-04-02T15:41:07;93952.16;;;16.70;44.10
10706;BME280;5404;42.656;23.336;2023-04-02T15:43:37;93954.63;;;16.59;43.66
10706;BME280;5404;42.656;23.336;2023-04-02T15:46:26;93958.06;;;16.60;44.12
10706;BME280;5404;42.656;23.336;2023-04-02T15:54:18;93958.16;;;16.28;44.97
10706;BME280;5404;42.656;23.336;2023-04-02T15:57:07;93961.03;;;16.20;45.66
10706;BME280;5404;42.656;23.336;2023-04-02T15:59:48;93963.03;;;16.07;46.51
10706;BME280;5404;42.656;23.336;2023-04-02T16:12:18;93972.91;;;15.72;46.84
10706;BME280;5404;42.656;23.336;2023-04-02T16:14:45;93970.66;;;15.59;46.36
10706;BME280;5404;42.656;23.336;2023-04-02T16:17:25;93970.28;;;15.45;46.13
10706;BME280;5404;42.656;23.336;2023-04-02T16:19:52;93982.72;;;15.37;45.79
10706;BME280;5404;42.656;23.336;2023-04-02T16:22:25;93975.56;;;15.41;45.21
10706;BME280;5404;42.656;23.336;2023-04-02T16:24:59;93974.66;;;15.37;45.20
10706;BME280;5404;42.656;23.336;2023-04-02T16:27:27;93974.56;;;15.34;46.27
10706;BME280;5404;42.656;23.336;2023-04-02T16:37:38;93989.06;;;15.17;46.82
10706;BME280;5404;42.656;23.336;2023-04-02T16:45:29;93985.41;;;14.82;52.56